sensor_id;sensor_type;location;lat;lon;timestamp;pressure;altitude;pressure_sealevel;temperature;humidity
75886;BME280;64561;44.018;10.144;2023-06-10T00:00:11;101230.41;;;21.34;86.45
75886;BME280;64561;44.018;10.144;2023-06-10T00:02:41;101230.41;;;21.34;86.56
75886;BME280;64561;44.018;10.144;2023-06-10T00:05:16;101238.22;;;21.34;85.80
75886;BME280;64561;44.018;10.144;2023-06-10T00:07:43;101240.03;;;21.29;84.96
75886;BME280;64561;44.018;10.144;2023-06-10T00:10:16;101247.00;;;21.27;85.54
75886;BME280;64561;44.018;10.144;2023-06-10T00:12:44;101238.34;;;21.25;85.27
75886;BME280;64561;44.018;10.144;2023-06-10T00:15:12;101236.66;;;21.22;86.03
75886;BME280;64561;44.018;10.144;2023-06-10T00:17:39;101241.91;;;21.18;86.18
75886;BME280;64561;44.018;10.144;2023-06-10T00:20:09;101235.88;;;21.16;86.70
75886;BME280;64561;44.018;10.144;2023-06-10T00:22:39;101242.88;;;21.12;86.75
75886;BME280;64561;44.018;10.144;2023-06-10T00:25:09;101239.41;;;21.10;85.03
75886;BME280;64561;44.018;10.144;2023-06-10T00:27:37;101241.31;;;20.96;85.58
75886;BME280;64561;44.018;10.144;2023-06-10T00:30:05;101237.94;;;20.89;85.74
75886;BME280;64561;44.018;10.144;2023-06-10T00:32:35;101231.00;;;20.90;86.95
75886;BME280;64561;44.018;10.144;2023-06-10T00:35:03;101229.28;;;20.87;86.30
75886;BME280;64561;44.018;10.144;2023-06-10T00:37:34;101225.34;;;20.55;85.71
75886;BME280;64561;44.018;10.144;2023-06-10T00:40:05;101221.81;;;20.60;86.47
75886;BME280;64561;44.018;10.144;2023-06-10T00:42:32;101223.44;;;20.68;87.53
75886;BME280;64561;44.018;10.144;2023-06-10T00:44:59;101223.41;;;20.71;88.27
75886;BME280;64561;44.018;10.144;2023-06-10T00:47:27;101212.97;;;20.74;88.41
75886;BME280;64561;44.018;10.144;2023-06-10T00:49:55;101213.81;;;20.75;87.76
75886;BME280;64561;44.018;10.144;2023-06-10T00:52:26;101223.38;;;20.76;88.27
75886;BME280;64561;44.018;10.144;2023-06-10T00:54:54;101219.13;;;20.66;87.78
75886;BME280;64561;44.018;10.144;2023-06-10T00:57:21;101214.81;;;20.63;88.65
75886;BME280;64561;44.018;10.144;2023-06-10T00:59:49;101210.44;;;20.67;88.53
75886;BME280;64561;44.018;10.144;2023-06-10T01:02:16;101217.41;;;20.66;87.71
75886;BME280;64561;44.018;10.144;2023-06-10T01:04:43;101210.44;;;20.68;88.16
75886;BME280;64561;44.018;10.144;2023-06-10T01:07:28;101214.75;;;20.71;88.71
75886;BME280;64561;44.018;10.144;2023-06-10T01:10:52;101217.38;;;20.68;88.45
75886;BME280;64561;44.018;10.144;2023-06-10T01:13:11;101213.91;;;20.69;88.88
75886;BME280;64561;44.018;10.144;2023-06-10T01:15:38;101214.75;;;20.69;88.83
75886;BME280;64561;44.018;10.144;2023-06-10T01:18:07;101211.28;;;20.70;88.93
75886;BME280;64561;44.018;10.144;2023-06-10T01:20:42;101206.91;;;20.72;89.31
75886;BME280;64561;44.018;10.144;2023-06-10T01:23:11;101204.31;;;20.74;89.02
75886;BME280;64561;44.018;10.144;2023-06-10T01:25:42;101202.59;;;20.73;89.04
75886;BME280;64561;44.018;10.144;2023-06-10T01:28:17;101202.56;;;20.74;89.09
75886;BME280;64561;44.018;10.144;2023-06-10T01:33:42;101187.00;;;20.71;89.21
75886;BME280;64561;44.018;10.144;2023-06-10T01:36:10;101190.41;;;20.76;89.64
75886;BME280;64561;44.018;10.144;2023-06-10T01:38:47;101180.00;;;20.75;89.76
75886;BME280;64561;44.018;10.144;2023-06-10T01:41:17;101179.16;;;20.74;89.62
75886;BME280;64561;44.018;10.144;2023-06-10T01:43:45;101184.31;;;20.77;89.34
75886;BME280;64561;44.018;10.144;2023-06-10T01:46:14;101186.03;;;20.78;89.69
75886;BME280;64561;44.018;10.144;2023-06-10T01:48:42;101184.34;;;20.76;90.02
75886;BME280;64561;44.018;10.144;2023-06-10T01:51:09;101178.22;;;20.78;90.22
75886;BME280;64561;44.018;10.144;2023-06-10T01:53:36;101175.66;;;20.77;90.09
75886;BME280;64561;44.018;10.144;2023-06-10T01:56:03;101177.41;;;20.76;90.24
75886;BME280;64561;44.018;10.144;2023-06-10T01:58:30;101175.69;;;20.72;90.25
75886;BME280;64561;44.018;10.144;2023-06-10T02:00:57;101166.28;;;20.64;90.57
75886;BME280;64561;44.018;10.144;2023-06-10T02:03:24;101177.53;;;20.67;90.88
75886;BME280;64561;44.018;10.144;2023-06-10T02:05:52;101173.19;;;20.66;90.57
75886;BME280;64561;44.018;10.144;2023-06-10T02:08:19;101172.31;;;20.66;89.87
75886;BME280;64561;44.018;10.144;2023-06-10T02:10:46;101164.53;;;20.66;90.23
75886;BME280;64561;44.018;10.144;2023-06-10T02:13:16;101169.81;;;20.60;90.05
75886;BME280;64561;44.018;10.144;2023-06-10T02:15:49;101178.56;;;20.49;89.94
75886;BME280;64561;44.018;10.144;2023-06-10T02:18:18;101177.72;;;20.49;89.68
75886;BME280;64561;44.018;10.144;2023-06-10T02:20:47;101175.13;;;20.47;89.55
75886;BME280;64561;44.018;10.144;2023-06-10T02:23:17;101179.38;;;20.51;89.54
75886;BME280;64561;44.018;10.144;2023-06-10T02:25:44;101177.63;;;20.57;89.69
75886;BME280;64561;44.018;10.144;2023-06-10T02:28:11;101181.91;;;20.61;90.07
75886;BME280;64561;44.018;10.144;2023-06-10T02:30:42;101175.88;;;20.59;90.10
75886;BME280;64561;44.018;10.144;2023-06-10T02:33:09;101176.75;;;20.59;90.24
75886;BME280;64561;44.018;10.144;2023-06-10T02:35:41;101184.56;;;20.59;90.13
75886;BME280;64561;44.018;10.144;2023-06-10T02:38:08;101172.47;;;20.53;90.06
75886;BME280;64561;44.018;10.144;2023-06-10T02:40:35;101171.59;;;20.54;90.43
75886;BME280;64561;44.018;10.144;2023-06-10T02:43:02;101169.84;;;20.58;90.82
75886;BME280;64561;44.018;10.144;2023-06-10T02:45:30;101175.03;;;20.58;90.78
75886;BME280;64561;44.018;10.144;2023-06-10T02:47:59;101173.28;;;20.59;90.79
75886;BME280;64561;44.018;10.144;2023-06-10T02:50:26;101164.63;;;20.57;90.96
75886;BME280;64561;44.018;10.144;2023-06-10T02:53:07;101163.78;;;20.54;90.64
75886;BME280;64561;44.018;10.144;2023-06-10T02:55:37;101167.28;;;20.53;90.72
75886;BME280;64561;44.018;10.144;2023-06-10T02:58:08;101153.38;;;20.51;91.43
75886;BME280;64561;44.018;10.144;2023-06-10T03:00:35;101157.75;;;20.52;91.39
75886;BME280;64561;44.018;10.144;2023-06-10T03:03:04;101159.50;;;20.52;91.21
75886;BME280;64561;44.018;10.144;2023-06-10T03:05:41;101162.97;;;20.52;91.54
75886;BME280;64561;44.018;10.144;2023-06-10T03:08:08;101164.72;;;20.47;90.83
75886;BME280;64561;44.018;10.144;2023-06-10T03:10:39;101167.34;;;20.44;91.37
75886;BME280;64561;44.018;10.144;2023-06-10T03:13:07;101162.16;;;20.46;91.32
75886;BME280;64561;44.018;10.144;2023-06-10T03:15:34;101167.34;;;20.46;91.77
75886;BME280;64561;44.018;10.144;2023-06-10T03:18:06;101161.25;;;20.45;91.62
75886;BME280;64561;44.018;10.144;2023-06-10T03:20:33;101160.38;;;20.48;92.45
75886;BME280;64561;44.018;10.144;2023-06-10T03:23:05;101155.25;;;20.42;92.01
75886;BME280;64561;44.018;10.144;2023-06-10T03:25:35;101155.44;;;20.25;91.48
75886;BME280;64561;44.018;10.144;2023-06-10T03:28:03;101158.84;;;20.31;91.52
75886;BME280;64561;44.018;10.144;2023-06-10T03:30:30;101158.75;;;20.38;91.89
75886;BME280;64561;44.018;10.144;2023-06-10T03:32:58;101157.00;;;20.40;91.78
75886;BME280;64561;44.018;10.144;2023-06-10T03:35:27;101156.94;;;20.46;91.91
75886;BME280;64561;44.018;10.144;2023-06-10T03:37:54;101156.88;;;20.50;92.13
75886;BME280;64561;44.018;10.144;2023-06-10T03:40:21;101161.22;;;20.53;92.08
75886;BME280;64561;44.018;10.144;2023-06-10T03:42:48;101161.22;;;20.50;91.41
75886;BME280;64561;44.018;10.144;2023-06-10T03:45:17;101164.69;;;20.50;92.10
75886;BME280;64561;44.018;10.144;2023-06-10T03:47:46;101164.69;;;20.50;92.13
75886;BME280;64561;44.018;10.144;2023-06-10T03:50:18;101169.03;;;20.50;92.06
75886;BME280;64561;44.018;10.144;2023-06-10T03:52:45;101159.50;;;20.52;91.97
75886;BME280;64561;44.018;10.144;2023-06-10T03:55:15;101162.06;;;20.55;92.11
75886;BME280;64561;44.018;10.144;2023-06-10T03:57:45;101154.28;;;20.53;92.04
75886;BME280;64561;44.018;10.144;2023-06-10T04:00:13;101163.81;;;20.53;91.86
75886;BME280;64561;44.018;10.144;2023-06-10T04:02:43;101164.66;;;20.53;92.08
75886;BME280;64561;44.018;10.144;2023-06-10T04:05:24;101163.78;;;20.54;91.79
75886;BME280;64561;44.018;10.144;2023-06-10T04:07:51;101161.19;;;20.51;91.37
75886;BME280;64561;44.018;10.144;2023-06-10T04:10:19;101159.59;;;20.43;92.15
75886;BME280;64561;44.018;10.144;2023-06-10T04:12:46;101159.59;;;20.43;92.10
75886;BME280;64561;44.018;10.144;2023-06-10T04:15:13;101168.25;;;20.43;92.31
75886;BME280;64561;44.018;10.144;2023-06-10T04:17:41;101160.44;;;20.42;92.57
75886;BME280;64561;44.018;10.144;2023-06-10T04:20:11;101166.50;;;20.44;92.50
75886;BME280;64561;44.018;10.144;2023-06-10T04:22:41;101171.63;;;20.48;92.77
75886;BME280;64561;44.018;10.144;2023-06-10T04:25:10;101163.81;;;20.50;92.93
75886;BME280;64561;44.018;10.144;2023-06-10T04:27:39;101165.53;;;20.54;93.09
75886;BME280;64561;44.018;10.144;2023-06-10T04:30:06;101160.38;;;20.52;92.65
75886;BME280;64561;44.018;10.144;2023-06-10T04:32:36;101156.97;;;20.41;92.55
75886;BME280;64561;44.018;10.144;2023-06-10T04:35:05;101158.66;;;20.45;92.36
75886;BME280;64561;44.018;10.144;2023-06-10T04:37:34;101161.22;;;20.50;92.93
75886;BME280;64561;44.018;10.144;2023-06-10T04:40:01;101162.97;;;20.52;93.20
75886;BME280;64561;44.018;10.144;2023-06-10T04:42:29;101165.53;;;20.55;93.13
75886;BME280;64561;44.018;10.144;2023-06-10T04:44:56;101164.63;;;20.57;93.43
75886;BME280;64561;44.018;10.144;2023-06-10T04:47:24;101171.53;;;20.58;93.41
75886;BME280;64561;44.018;10.144;2023-06-10T04:49:51;101171.53;;;20.59;93.52
75886;BME280;64561;44.018;10.144;2023-06-10T04:52:18;101171.50;;;20.61;94.09
75886;BME280;64561;44.018;10.144;2023-06-10T04:54:45;101168.91;;;20.62;93.87
75886;BME280;64561;44.018;10.144;2023-06-10T04:57:12;101170.66;;;20.62;93.88
75886;BME280;64561;44.018;10.144;2023-06-10T04:59:39;101169.75;;;20.63;93.52
75886;BME280;64561;44.018;10.144;2023-06-10T05:02:06;101157.63;;;20.63;93.67
75886;BME280;64561;44.018;10.144;2023-06-10T05:04:34;101155.91;;;20.61;93.74
75886;BME280;64561;44.018;10.144;2023-06-10T05:07:01;101156.75;;;20.64;93.38
75886;BME280;64561;44.018;10.144;2023-06-10T05:09:28;101161.06;;;20.64;93.15
75886;BME280;64561;44.018;10.144;2023-06-10T05:11:55;101157.59;;;20.65;93.35
75886;BME280;64561;44.018;10.144;2023-06-10T05:14:22;101158.47;;;20.65;93.65
75886;BME280;64561;44.018;10.144;2023-06-10T05:16:49;101156.69;;;20.69;94.26
75886;BME280;64561;44.018;10.144;2023-06-10T05:19:16;101160.13;;;20.69;93.83
75886;BME280;64561;44.018;10.144;2023-06-10T05:21:44;101154.03;;;20.73;93.98
75886;BME280;64561;44.018;10.144;2023-06-10T05:24:11;101154.94;;;20.71;93.23
75886;BME280;64561;44.018;10.144;2023-06-10T05:26:38;101152.28;;;20.72;92.96
75886;BME280;64561;44.018;10.144;2023-06-10T05:29:06;101152.28;;;20.74;92.66
75886;BME280;64561;44.018;10.144;2023-06-10T05:31:33;101147.94;;;20.74;93.15
75886;BME280;64561;44.018;10.144;2023-06-10T05:34:14;101150.50;;;20.77;93.58
75886;BME280;64561;44.018;10.144;2023-06-10T05:36:41;101149.63;;;20.78;93.95
75886;BME280;64561;44.018;10.144;2023-06-10T05:39:09;101143.56;;;20.80;93.80
75886;BME280;64561;44.018;10.144;2023-06-10T05:41:36;101147.88;;;20.81;94.34
75886;BME280;64561;44.018;10.144;2023-06-10T05:44:03;101146.97;;;20.83;94.65
75886;BME280;64561;44.018;10.144;2023-06-10T05:46:31;101138.25;;;20.86;94.69
75886;BME280;64561;44.018;10.144;2023-06-10T05:48:58;101142.53;;;20.91;94.63
75886;BME280;64561;44.018;10.144;2023-06-10T05:51:25;101142.44;;;20.96;95.12
75886;BME280;64561;44.018;10.144;2023-06-10T05:53:52;101141.53;;;20.98;95.85
75886;BME280;64561;44.018;10.144;2023-06-10T05:56:19;101135.44;;;21.01;95.56
75886;BME280;64561;44.018;10.144;2023-06-10T05:58:51;101138.84;;;21.05;95.85
75886;BME280;64561;44.018;10.144;2023-06-10T06:01:18;101139.66;;;21.08;95.65
75886;BME280;64561;44.018;10.144;2023-06-10T06:03:45;101143.97;;;21.11;95.38
75886;BME280;64561;44.018;10.144;2023-06-10T06:06:13;101138.75;;;21.11;95.07
75886;BME280;64561;44.018;10.144;2023-06-10T06:08:40;101143.09;;;21.12;94.49
75886;BME280;64561;44.018;10.144;2023-06-10T06:11:07;101144.78;;;21.14;94.52
75886;BME280;64561;44.018;10.144;2023-06-10T06:13:34;101153.44;;;21.16;94.34
75886;BME280;64561;44.018;10.144;2023-06-10T06:16:01;101158.59;;;21.18;94.33
75886;BME280;64561;44.018;10.144;2023-06-10T06:18:28;101154.28;;;21.18;93.94
75886;BME280;64561;44.018;10.144;2023-06-10T06:20:56;101159.41;;;21.24;94.45
75886;BME280;64561;44.018;10.144;2023-06-10T06:23:23;101155.06;;;21.25;94.08
75886;BME280;64561;44.018;10.144;2023-06-10T06:25:50;101156.72;;;21.29;94.14
75886;BME280;64561;44.018;10.144;2023-06-10T06:28:17;101153.22;;;21.32;94.51
75886;BME280;64561;44.018;10.144;2023-06-10T06:30:46;101161.88;;;21.34;94.04
75886;BME280;64561;44.018;10.144;2023-06-10T06:33:13;101166.19;;;21.35;93.94
75886;BME280;64561;44.018;10.144;2023-06-10T06:35:40;101172.25;;;21.37;92.55
75886;BME280;64561;44.018;10.144;2023-06-10T06:38:08;101173.06;;;21.39;91.97
75886;BME280;64561;44.018;10.144;2023-06-10T06:40:35;101172.22;;;21.40;91.37
75886;BME280;64561;44.018;10.144;2023-06-10T06:43:02;101173.03;;;21.43;91.03
75886;BME280;64561;44.018;10.144;2023-06-10T06:45:52;101172.97;;;21.48;90.34
75886;BME280;64561;44.018;10.144;2023-06-10T06:48:19;101180.75;;;21.50;89.31
75886;BME280;64561;44.018;10.144;2023-06-10T06:50:46;101178.13;;;21.50;89.35
75886;BME280;64561;44.018;10.144;2023-06-10T06:53:13;101171.13;;;21.53;89.14
75886;BME280;64561;44.018;10.144;2023-06-10T06:55:43;101174.56;;;21.55;86.57
75886;BME280;64561;44.018;10.144;2023-06-10T06:58:10;101178.94;;;21.53;86.50
75886;BME280;64561;44.018;10.144;2023-06-10T07:00:36;101179.84;;;21.52;87.02
75886;BME280;64561;44.018;10.144;2023-06-10T07:03:03;101176.34;;;21.53;87.07
75886;BME280;64561;44.018;10.144;2023-06-10T07:05:31;101180.59;;;21.60;87.50
75886;BME280;64561;44.018;10.144;2023-06-10T07:07:58;101184.03;;;21.61;87.68
75886;BME280;64561;44.018;10.144;2023-06-10T07:10:25;101178.75;;;21.65;87.33
75886;BME280;64561;44.018;10.144;2023-06-10T07:12:53;101183.94;;;21.67;87.28
75886;BME280;64561;44.018;10.144;2023-06-10T07:15:20;101182.16;;;21.69;87.59
75886;BME280;64561;44.018;10.144;2023-06-10T07:17:47;101186.50;;;21.68;87.08
75886;BME280;64561;44.018;10.144;2023-06-10T07:20:14;101182.16;;;21.69;87.04
75886;BME280;64561;44.018;10.144;2023-06-10T07:22:42;101182.09;;;21.72;86.67
75886;BME280;64561;44.018;10.144;2023-06-10T07:25:09;101178.69;;;21.70;86.53
75886;BME280;64561;44.018;10.144;2023-06-10T07:27:37;101176.88;;;21.72;86.64
75886;BME280;64561;44.018;10.144;2023-06-10T07:30:05;101181.22;;;21.73;86.48
75886;BME280;64561;44.018;10.144;2023-06-10T07:32:35;101183.00;;;21.71;86.60
75886;BME280;64561;44.018;10.144;2023-06-10T07:35:02;101182.09;;;21.72;86.97
75886;BME280;64561;44.018;10.144;2023-06-10T07:37:29;101178.63;;;21.73;87.35
75886;BME280;64561;44.018;10.144;2023-06-10T07:39:56;101176.03;;;21.73;87.47
75886;BME280;64561;44.018;10.144;2023-06-10T07:42:23;101185.44;;;21.80;88.69
75886;BME280;64561;44.018;10.144;2023-06-10T07:44:50;101178.47;;;21.82;88.92
75886;BME280;64561;44.018;10.144;2023-06-10T07:47:18;101173.22;;;21.85;88.64
75886;BME280;64561;44.018;10.144;2023-06-10T07:49:45;101168.78;;;21.89;88.39
75886;BME280;64561;44.018;10.144;2023-06-10T07:52:12;101167.09;;;21.88;88.27
75886;BME280;64561;44.018;10.144;2023-06-10T07:54:39;101167.03;;;21.89;87.59
75886;BME280;64561;44.018;10.144;2023-06-10T07:57:06;101167.03;;;21.91;88.06
75886;BME280;64561;44.018;10.144;2023-06-10T07:59:33;101162.63;;;21.93;88.71
75886;BME280;64561;44.018;10.144;2023-06-10T08:02:00;101166.91;;;21.97;88.31
75886;BME280;64561;44.018;10.144;2023-06-10T08:04:27;101165.16;;;21.98;85.86
75886;BME280;64561;44.018;10.144;2023-06-10T08:06:55;101164.31;;;21.97;84.44
75886;BME280;64561;44.018;10.144;2023-06-10T08:09:23;101168.69;;;21.97;85.52
75886;BME280;64561;44.018;10.144;2023-06-10T08:11:50;101166.88;;;22.00;85.65
75886;BME280;64561;44.018;10.144;2023-06-10T08:14:17;101162.47;;;22.04;86.35
75886;BME280;64561;44.018;10.144;2023-06-10T08:16:44;101171.84;;;22.12;88.09
75886;BME280;64561;44.018;10.144;2023-06-10T08:19:11;101166.50;;;22.20;88.10
75886;BME280;64561;44.018;10.144;2023-06-10T08:21:38;101172.50;;;22.25;88.18
75886;BME280;64561;44.018;10.144;2023-06-10T08:24:07;101168.91;;;22.32;86.92
75886;BME280;64561;44.018;10.144;2023-06-10T08:26:34;101162.75;;;22.36;85.98
75886;BME280;64561;44.018;10.144;2023-06-10T08:29:01;101160.84;;;22.45;85.96
75886;BME280;64561;44.018;10.144;2023-06-10T08:31:28;101158.94;;;22.53;85.82
75886;BME280;64561;44.018;10.144;2023-06-10T08:33:55;101165.59;;;22.68;85.83
75886;BME280;64561;44.018;10.144;2023-06-10T08:36:22;101156.03;;;22.67;82.57
75886;BME280;64561;44.018;10.144;2023-06-10T08:38:49;101162.13;;;22.67;81.26
75886;BME280;64561;44.018;10.144;2023-06-10T08:41:17;101164.59;;;22.73;81.82
75886;BME280;64561;44.018;10.144;2023-06-10T08:43:50;101168.09;;;22.72;83.42
75886;BME280;64561;44.018;10.144;2023-06-10T08:46:21;101150.75;;;22.70;82.64
75886;BME280;64561;44.018;10.144;2023-06-10T08:48:52;101158.66;;;22.67;79.98
75886;BME280;64561;44.018;10.144;2023-06-10T08:51:23;101153.50;;;22.64;80.01
75886;BME280;64561;44.018;10.144;2023-06-10T08:54:00;101151.75;;;22.64;79.01
75886;BME280;64561;44.018;10.144;2023-06-10T08:56:29;101153.56;;;22.60;78.57
75886;BME280;64561;44.018;10.144;2023-06-10T08:58:57;101161.34;;;22.62;79.53
75886;BME280;64561;44.018;10.144;2023-06-10T09:01:27;101157.00;;;22.63;79.96
75886;BME280;64561;44.018;10.144;2023-06-10T09:03:58;101168.19;;;22.68;79.59
75886;BME280;64561;44.018;10.144;2023-06-10T09:06:26;101173.44;;;22.66;78.85
75886;BME280;64561;44.018;10.144;2023-06-10T09:08:57;101175.22;;;22.66;80.13
75886;BME280;64561;44.018;10.144;2023-06-10T09:11:27;101183.88;;;22.66;80.76
75886;BME280;64561;44.018;10.144;2023-06-10T09:13:54;101182.19;;;22.64;80.90
75886;BME280;64561;44.018;10.144;2023-06-10T09:16:21;101174.31;;;22.67;80.91
75886;BME280;64561;44.018;10.144;2023-06-10T09:18:48;101176.88;;;22.68;80.99
75886;BME280;64561;44.018;10.144;2023-06-10T09:21:17;101185.59;;;22.69;80.52
75886;BME280;64561;44.018;10.144;2023-06-10T09:23:45;101185.53;;;22.72;80.23
75886;BME280;64561;44.018;10.144;2023-06-10T09:26:13;101186.25;;;22.78;79.96
75886;BME280;64561;44.018;10.144;2023-06-10T09:28:44;101184.41;;;22.83;77.89
75886;BME280;64561;44.018;10.144;2023-06-10T09:31:14;101170.41;;;22.86;79.36
75886;BME280;64561;44.018;10.144;2023-06-10T09:33:45;101171.28;;;22.87;80.55
75886;BME280;64561;44.018;10.144;2023-06-10T09:36:21;101178.97;;;22.94;80.24
75886;BME280;64561;44.018;10.144;2023-06-10T09:38:50;101177.19;;;22.96;79.63
75886;BME280;64561;44.018;10.144;2023-06-10T09:41:17;101180.53;;;23.01;81.05
75886;BME280;64561;44.018;10.144;2023-06-10T09:43:46;101181.44;;;23.02;80.51
75886;BME280;64561;44.018;10.144;2023-06-10T09:46:17;101179.75;;;22.98;80.49
75886;BME280;64561;44.018;10.144;2023-06-10T09:48:46;101183.31;;;22.94;80.16
75886;BME280;64561;44.018;10.144;2023-06-10T09:51:15;101192.06;;;22.91;80.40
75886;BME280;64561;44.018;10.144;2023-06-10T09:53:48;101191.19;;;22.91;79.91
75886;BME280;64561;44.018;10.144;2023-06-10T09:56:16;101185.97;;;22.91;79.37
75886;BME280;64561;44.018;10.144;2023-06-10T09:58:44;101196.44;;;22.89;79.54
75886;BME280;64561;44.018;10.144;2023-06-10T10:01:14;101189.69;;;22.80;80.50
75886;BME280;64561;44.018;10.144;2023-06-10T10:03:48;101194.06;;;22.78;80.88
75886;BME280;64561;44.018;10.144;2023-06-10T10:06:17;101204.50;;;22.78;80.82
75886;BME280;64561;44.018;10.144;2023-06-10T10:08:46;101202.84;;;22.74;80.80
75886;BME280;64561;44.018;10.144;2023-06-10T10:11:22;101200.28;;;22.71;81.47
75886;BME280;64561;44.018;10.144;2023-06-10T10:13:50;101205.50;;;22.71;80.38
75886;BME280;64561;44.018;10.144;2023-06-10T10:16:25;101209.06;;;22.69;80.84
75886;BME280;64561;44.018;10.144;2023-06-10T10:18:59;101213.50;;;22.64;81.48
75886;BME280;64561;44.018;10.144;2023-06-10T10:21:36;101211.75;;;22.66;81.20
75886;BME280;64561;44.018;10.144;2023-06-10T10:24:20;101204.94;;;22.57;83.00
75886;BME280;64561;44.018;10.144;2023-06-10T10:26:50;101209.19;;;22.63;81.74
75886;BME280;64561;44.018;10.144;2023-06-10T10:29:32;101212.66;;;22.62;81.21
75886;BME280;64561;44.018;10.144;2023-06-10T10:32:02;101225.78;;;22.58;82.21
75886;BME280;64561;44.018;10.144;2023-06-10T10:34:37;101228.44;;;22.57;83.08
75886;BME280;64561;44.018;10.144;2023-06-10T10:37:08;101221.53;;;22.54;83.16
75886;BME280;64561;44.018;10.144;2023-06-10T10:39:36;101229.28;;;22.56;82.56
75886;BME280;64561;44.018;10.144;2023-06-10T10:42:04;101217.22;;;22.52;83.04
75886;BME280;64561;44.018;10.144;2023-06-10T10:44:32;101212.06;;;22.49;82.32
75886;BME280;64561;44.018;10.144;2023-06-10T10:47:02;101208.66;;;22.44;82.81
75886;BME280;64561;44.018;10.144;2023-06-10T10:49:35;101198.22;;;22.45;83.52
75886;BME280;64561;44.018;10.144;2023-06-10T10:52:03;101204.19;;;22.50;82.33
75886;BME280;64561;44.018;10.144;2023-06-10T10:54:36;101203.28;;;22.53;82.23
75886;BME280;64561;44.018;10.144;2023-06-10T10:59:58;101209.38;;;22.52;79.46
75886;BME280;64561;44.018;10.144;2023-06-10T11:02:36;101205.09;;;22.49;79.70
75886;BME280;64561;44.018;10.144;2023-06-10T11:05:07;101203.34;;;22.50;80.21
75886;BME280;64561;44.018;10.144;2023-06-10T11:07:35;101202.47;;;22.51;79.15
75886;BME280;64561;44.018;10.144;2023-06-10T11:10:10;101201.56;;;22.52;79.58
75886;BME280;64561;44.018;10.144;2023-06-10T11:12:51;101203.25;;;22.54;78.59
75886;BME280;64561;44.018;10.144;2023-06-10T11:15:25;101201.50;;;22.55;77.13
75886;BME280;64561;44.018;10.144;2023-06-10T11:31:20;101202.16;;;22.65;78.62
75886;BME280;64561;44.018;10.144;2023-06-10T11:33:52;101201.44;;;22.58;78.86
75886;BME280;64561;44.018;10.144;2023-06-10T11:36:23;101198.91;;;22.55;79.63
75886;BME280;64561;44.018;10.144;2023-06-10T11:39:00;101195.44;;;22.53;79.86
75886;BME280;64561;44.018;10.144;2023-06-10T11:41:29;101197.19;;;22.52;81.15
75886;BME280;64561;44.018;10.144;2023-06-10T11:44:02;101194.63;;;22.51;80.18
75886;BME280;64561;44.018;10.144;2023-06-10T11:46:29;101192.91;;;22.50;80.58
75886;BME280;64561;44.018;10.144;2023-06-10T11:48:58;101199.88;;;22.49;80.03
75886;BME280;64561;44.018;10.144;2023-06-10T11:51:26;101194.72;;;22.46;80.43
75886;BME280;64561;44.018;10.144;2023-06-10T11:53:54;101193.75;;;22.52;79.77
75886;BME280;64561;44.018;10.144;2023-06-10T11:56:27;101188.53;;;22.52;78.66
75886;BME280;64561;44.018;10.144;2023-06-10T11:58:56;101185.94;;;22.50;78.90
75886;BME280;64561;44.018;10.144;2023-06-10T12:01:25;101180.69;;;22.52;78.78
75886;BME280;64561;44.018;10.144;2023-06-10T12:03:59;101178.09;;;22.52;78.43
75886;BME280;64561;44.018;10.144;2023-06-10T12:06:27;101171.09;;;22.54;78.38
75886;BME280;64561;44.018;10.144;2023-06-10T12:09:04;101173.72;;;22.54;77.12
75886;BME280;64561;44.018;10.144;2023-06-10T12:11:58;101172.78;;;22.56;76.80
75886;BME280;64561;44.018;10.144;2023-06-10T12:17:20;101161.28;;;22.65;79.73
75886;BME280;64561;44.018;10.144;2023-06-10T12:19:52;101166.28;;;22.77;77.55
75886;BME280;64561;44.018;10.144;2023-06-10T12:22:19;101157.44;;;22.83;77.70
75886;BME280;64561;44.018;10.144;2023-06-10T12:25:04;101152.13;;;22.86;77.60
75886;BME280;64561;44.018;10.144;2023-06-10T12:27:34;101158.03;;;22.97;80.37
75886;BME280;64561;44.018;10.144;2023-06-10T12:30:05;101153.66;;;22.98;80.16
75886;BME280;64561;44.018;10.144;2023-06-10T12:35:08;101145.44;;;23.15;81.00
75886;BME280;64561;44.018;10.144;2023-06-10T12:37:36;101140.09;;;23.19;77.80
75886;BME280;64561;44.018;10.144;2023-06-10T12:40:08;101131.53;;;23.14;77.67
75886;BME280;64561;44.018;10.144;2023-06-10T12:42:37;101144.47;;;23.20;76.24
75886;BME280;64561;44.018;10.144;2023-06-10T12:45:05;101133.94;;;23.23;75.58
75886;BME280;64561;44.018;10.144;2023-06-10T12:47:37;101135.47;;;23.32;76.81
75886;BME280;64561;44.018;10.144;2023-06-10T12:50:07;101128.88;;;23.53;77.46
75886;BME280;64561;44.018;10.144;2023-06-10T12:52:34;101123.44;;;23.61;76.12
75886;BME280;64561;44.018;10.144;2023-06-10T12:55:01;101134.19;;;23.48;75.53
75886;BME280;64561;44.018;10.144;2023-06-10T12:57:29;101125.38;;;23.52;73.68
75886;BME280;64561;44.018;10.144;2023-06-10T12:59:56;101124.34;;;23.58;73.83
75886;BME280;64561;44.018;10.144;2023-06-10T13:02:31;101119.88;;;23.63;73.44
75886;BME280;64561;44.018;10.144;2023-06-10T13:04:59;101117.16;;;23.69;74.17
75886;BME280;64561;44.018;10.144;2023-06-10T13:07:26;101116.25;;;23.69;74.07
75886;BME280;64561;44.018;10.144;2023-06-10T13:09:53;101121.13;;;23.84;71.73
75886;BME280;64561;44.018;10.144;2023-06-10T13:12:20;101119.94;;;23.96;71.84
75886;BME280;64561;44.018;10.144;2023-06-10T13:14:59;101115.47;;;24.00;72.18